Wetterdaten: Woche 02.10.17 - 08.10.17 (KW40)
Datum Zeit Temp. A. Feuchte A. Luftdruck Regen Wind Richtung Taupunkt Windchill Windben
02.10.2017 00:00 6,0 C 82 % 1024,1 hPa 0,0 l/m 0,0 km/h N 3,1 C 6,0 C 0,0 km/h
02.10.2017 01:00 5,3 C 82 % 1023,9 hPa 0,0 l/m 0,0 km/h N 2,5 C 5,3 C 0,0 km/h
02.10.2017 02:00 4,6 C 83 % 1023,9 hPa 0,0 l/m 0,0 km/h N 2,0 C 4,6 C 0,0 km/h
02.10.2017 03:00 4,1 C 83 % 1023,7 hPa 0,0 l/m 0,0 km/h N 1,5 C 4,1 C 0,0 km/h
02.10.2017 04:00 3,4 C 83 % 1023,6 hPa 0,0 l/m 0,0 km/h N 0,8 C 3,4 C 0,0 km/h
02.10.2017 05:00 2,8 C 83 % 1023,4 hPa 0,0 l/m 0,0 km/h N 0,2 C 2,8 C 0,0 km/h
02.10.2017 06:00 2,3 C 83 % 1023,4 hPa 0,0 l/m 0,0 km/h N -0,3 C 2,3 C 0,0 km/h
02.10.2017 07:00 2,1 C 83 % 1023,8 hPa 0,0 l/m 0,0 km/h N -0,5 C 2,1 C 0,0 km/h
02.10.2017 08:00 3,6 C 84 % 1024,0 hPa 0,0 l/m 0,0 km/h N 1,1 C 3,6 C 0,0 km/h
02.10.2017 09:00 6,8 C 84 % 1023,8 hPa 0,0 l/m 0,0 km/h N 4,3 C 6,8 C 1,2 km/h
02.10.2017 10:00 10,2 C 83 % 1023,2 hPa 0,0 l/m 0,1 km/h N 7,5 C 10,2 C 2,8 km/h
02.10.2017 11:00 16,3 C 57 % 1022,8 hPa 0,0 l/m 3,3 km/h N 7,6 C 16,3 C 15,3 km/h
02.10.2017 12:00 18,5 C 47 % 1022,5 hPa 0,0 l/m 2,9 km/h N 6,9 C 18,5 C 14,1 km/h
02.10.2017 13:00 19,1 C 45 % 1021,8 hPa 0,0 l/m 2,6 km/h N 6,8 C 19,1 C 14,1 km/h
02.10.2017 14:00 18,9 C 45 % 1021,2 hPa 0,0 l/m 3,0 km/h N 6,7 C 18,9 C 12,1 km/h
02.10.2017 15:00 18,8 C 46 % 1020,5 hPa 0,0 l/m 2,5 km/h N 6,8 C 18,8 C 10,9 km/h
02.10.2017 16:00 18,3 C 45 % 1020,0 hPa 0,0 l/m 2,9 km/h N 6,2 C 18,3 C 12,1 km/h
02.10.2017 17:00 17,5 C 48 % 1019,8 hPa 0,0 l/m 2,2 km/h N 6,2 C 17,5 C 9,3 km/h
02.10.2017 18:00 16,2 C 53 % 1019,8 hPa 0,0 l/m 0,8 km/h N 6,5 C 16,2 C 6,1 km/h
02.10.2017 19:00 14,2 C 58 % 1019,8 hPa 0,0 l/m 0,0 km/h N 6,0 C 14,2 C 0,0 km/h
02.10.2017 20:00 11,3 C 68 % 1019,5 hPa 0,0 l/m 0,0 km/h N 5,6 C 11,3 C 0,0 km/h
02.10.2017 21:00 9,9 C 75 % 1019,0 hPa 0,0 l/m 0,0 km/h N 5,6 C 9,9 C 0,0 km/h
02.10.2017 22:00 9,5 C 77 % 1018,3 hPa 0,0 l/m 0,0 km/h N 5,6 C 9,5 C 0,0 km/h
02.10.2017 23:00 9,3 C 78 % 1017,8 hPa 0,0 l/m 0,0 km/h N 5,8 C 9,3 C 0,0 km/h
03.10.2017 00:00 9,1 C 80 % 1017,3 hPa 0,0 l/m 0,0 km/h N 5,8 C 9,1 C 0,4 km/h
03.10.2017 01:00 9,6 C 81 % 1017,0 hPa 0,0 l/m 0,1 km/h N 6,5 C 9,6 C 1,2 km/h
03.10.2017 02:00 10,1 C 81 % 1016,3 hPa 0,0 l/m 0,1 km/h N 7,1 C 10,1 C 1,6 km/h
03.10.2017 03:00 10,4 C 81 % 1015,9 hPa 0,0 l/m 0,1 km/h N 7,2 C 10,4 C 1,6 km/h
03.10.2017 04:00 10,6 C 81 % 1016,0 hPa 0,3 l/m 0,1 km/h N 7,5 C 10,6 C 2,0 km/h
03.10.2017 05:00 10,8 C 82 % 1015,9 hPa 3,6 l/m 0,0 km/h N 7,8 C 10,8 C 0,0 km/h
03.10.2017 06:00 10,6 C 82 % 1015,5 hPa 3,9 l/m 0,0 km/h N 7,7 C 10,6 C 0,0 km/h
03.10.2017 07:00 10,3 C 82 % 1015,3 hPa 0,5 l/m 0,0 km/h N 7,3 C 10,3 C 0,4 km/h
03.10.2017 08:00 10,3 C 82 % 1014,8 hPa 0,8 l/m 0,0 km/h N 7,4 C 10,3 C 0,4 km/h
03.10.2017 09:00 10,8 C 83 % 1014,2 hPa 1,0 l/m 0,1 km/h N 7,9 C 10,8 C 2,0 km/h
03.10.2017 10:00 11,2 C 83 % 1013,8 hPa 0,0 l/m 0,3 km/h N 8,4 C 11,2 C 5,2 km/h
03.10.2017 11:00 11,5 C 83 % 1013,5 hPa 0,5 l/m 0,2 km/h N 8,7 C 11,5 C 2,4 km/h
03.10.2017 12:00 12,0 C 83 % 1013,1 hPa 1,0 l/m 0,1 km/h N 9,2 C 12,0 C 1,2 km/h
03.10.2017 13:00 12,3 C 83 % 1014,0 hPa 2,3 l/m 0,0 km/h N 9,5 C 12,3 C 1,6 km/h
03.10.2017 14:00 13,8 C 83 % 1015,2 hPa 1,8 l/m 7,6 km/h N 10,9 C 12,4 C 25,4 km/h
03.10.2017 15:00 14,3 C 82 % 1015,3 hPa 0,3 l/m 6,5 km/h N 11,2 C 13,9 C 21,7 km/h
03.10.2017 16:00 14,4 C 77 % 1015,9 hPa 0,0 l/m 8,4 km/h N 10,3 C 13,3 C 29,0 km/h
03.10.2017 17:00 13,8 C 79 % 1018,1 hPa 0,0 l/m 10,9 km/h N 10,1 C 11,5 C 26,5 km/h
03.10.2017 18:00 13,0 C 80 % 1019,5 hPa 0,0 l/m 7,8 km/h N 9,6 C 12,0 C 22,1 km/h
03.10.2017 19:00 13,0 C 80 % 1020,3 hPa 0,0 l/m 6,1 km/h N 9,6 C 12,5 C 20,5 km/h
03.10.2017 20:00 12,9 C 80 % 1020,9 hPa 0,0 l/m 3,5 km/h N 9,4 C 12,9 C 14,5 km/h
03.10.2017 21:00 13,5 C 77 % 1021,8 hPa 0,0 l/m 7,2 km/h N 9,6 C 13,1 C 21,7 km/h
03.10.2017 22:00 13,6 C 77 % 1022,7 hPa 0,0 l/m 5,8 km/h N 9,6 C 13,6 C 18,1 km/h
03.10.2017 23:00 13,0 C 78 % 1023,5 hPa 0,0 l/m 5,2 km/h N 9,2 C 13,0 C 17,3 km/h
04.10.2017 00:00 12,6 C 78 % 1023,6 hPa 0,0 l/m 5,2 km/h N 8,8 C 12,5 C 19,7 km/h
04.10.2017 01:00 12,5 C 77 % 1023,9 hPa 0,0 l/m 5,7 km/h N 8,6 C 12,4 C 20,1 km/h
04.10.2017 02:00 12,7 C 76 % 1024,2 hPa 0,0 l/m 8,0 km/h N 8,5 C 11,7 C 24,9 km/h
04.10.2017 03:00 12,3 C 76 % 1024,1 hPa 0,0 l/m 7,3 km/h N 8,2 C 11,6 C 19,7 km/h
04.10.2017 04:00 12,2 C 75 % 1024,3 hPa 0,0 l/m 8,8 km/h N 7,9 C 10,7 C 23,3 km/h
04.10.2017 05:00 11,9 C 76 % 1024,6 hPa 0,0 l/m 7,9 km/h N 7,8 C 10,8 C 20,5 km/h
04.10.2017 06:00 11,7 C 77 % 1024,8 hPa 0,0 l/m 5,1 km/h N 7,7 C 11,5 C 17,3 km/h
04.10.2017 07:00 11,6 C 77 % 1024,9 hPa 0,0 l/m 1,9 km/h N 7,6 C 11,6 C 9,7 km/h
04.10.2017 08:00 12,5 C 75 % 1025,2 hPa 0,0 l/m 4,0 km/h N 8,1 C 12,5 C 13,3 km/h
04.10.2017 09:00 13,6 C 73 % 1025,1 hPa 0,0 l/m 0,5 km/h N 8,8 C 13,6 C 3,6 km/h
04.10.2017 10:00 15,9 C 67 % 1024,7 hPa 0,0 l/m 0,2 km/h N 9,8 C 15,9 C 4,0 km/h
04.10.2017 11:00 18,5 C 56 % 1024,3 hPa 0,0 l/m 0,4 km/h N 9,6 C 18,5 C 5,6 km/h
04.10.2017 12:00 19,5 C 54 % 1023,5 hPa 0,0 l/m 1,1 km/h N 9,9 C 19,5 C 11,6 km/h
04.10.2017 13:00 19,4 C 50 % 1022,5 hPa 0,0 l/m 1,9 km/h N 8,6 C 19,4 C 10,5 km/h
04.10.2017 14:00 18,9 C 52 % 1021,6 hPa 0,0 l/m 2,2 km/h N 8,7 C 18,9 C 11,7 km/h
04.10.2017 15:00 18,7 C 54 % 1020,7 hPa 0,0 l/m 0,4 km/h N 9,2 C 18,7 C 4,0 km/h
04.10.2017 16:00 18,0 C 56 % 1020,3 hPa 0,0 l/m 2,7 km/h N 9,0 C 18,0 C 11,7 km/h
04.10.2017 17:00 16,9 C 59 % 1019,9 hPa 0,0 l/m 2,4 km/h N 8,9 C 16,9 C 11,7 km/h
04.10.2017 18:00 15,6 C 63 % 1019,8 hPa 0,0 l/m 0,1 km/h N 8,7 C 15,6 C 2,0 km/h
04.10.2017 19:00 13,8 C 72 % 1019,6 hPa 0,0 l/m 0,1 km/h N 8,8 C 13,8 C 2,8 km/h
04.10.2017 20:00 12,7 C 75 % 1019,7 hPa 0,0 l/m 0,1 km/h N 8,5 C 12,7 C 1,6 km/h
04.10.2017 21:00 11,4 C 79 % 1019,8 hPa 0,0 l/m 0,0 km/h N 7,7 C 11,4 C 0,0 km/h
04.10.2017 22:00 10,9 C 81 % 1019,5 hPa 0,0 l/m 0,0 km/h N 7,8 C 10,9 C 0,0 km/h
04.10.2017 23:00 10,8 C 82 % 1018,8 hPa 0,0 l/m 0,0 km/h N 7,8 C 10,8 C 0,0 km/h
05.10.2017 00:00 11,5 C 82 % 1018,4 hPa 0,0 l/m 1,1 km/h N 8,4 C 11,5 C 6,0 km/h
05.10.2017 01:00 14,4 C 72 % 1018,1 hPa 0,0 l/m 2,7 km/h N 9,5 C 14,4 C 17,3 km/h
05.10.2017 02:00 14,9 C 70 % 1018,1 hPa 0,0 l/m 4,6 km/h N 9,5 C 14,9 C 18,5 km/h
05.10.2017 03:00 14,9 C 69 % 1017,5 hPa 0,0 l/m 6,7 km/h N 9,3 C 14,3 C 22,5 km/h
05.10.2017 04:00 14,9 C 67 % 1017,0 hPa 0,0 l/m 6,7 km/h N 8,9 C 14,5 C 20,5 km/h
05.10.2017 05:00 14,9 C 62 % 1016,2 hPa 0,0 l/m 6,2 km/h N 7,6 C 14,9 C 16,9 km/h
05.10.2017 06:00 14,7 C 61 % 1015,4 hPa 0,0 l/m 5,5 km/h N 7,2 C 14,7 C 21,7 km/h
05.10.2017 07:00 14,7 C 60 % 1014,8 hPa 0,0 l/m 1,9 km/h N 7,1 C 14,7 C 10,5 km/h
05.10.2017 08:00 14,4 C 65 % 1014,3 hPa 0,0 l/m 0,2 km/h N 7,8 C 14,4 C 2,0 km/h
05.10.2017 09:00 14,1 C 70 % 1013,9 hPa 0,0 l/m 0,0 km/h N 8,6 C 14,1 C 0,4 km/h
05.10.2017 10:00 14,8 C 66 % 1013,0 hPa 0,0 l/m 0,3 km/h N 8,5 C 14,8 C 4,4 km/h
05.10.2017 11:00 16,9 C 63 % 1011,7 hPa 0,0 l/m 0,4 km/h N 9,7 C 16,9 C 4,0 km/h
05.10.2017 12:00 18,8 C 56 % 1010,3 hPa 0,0 l/m 0,5 km/h N 9,9 C 18,8 C 5,6 km/h
05.10.2017 13:00 22,3 C 38 % 1008,5 hPa 0,0 l/m 1,6 km/h N 7,0 C 22,3 C 10,9 km/h
05.10.2017 14:00 22,1 C 40 % 1006,9 hPa 0,0 l/m 2,3 km/h N 7,2 C 22,1 C 20,1 km/h
05.10.2017 15:00 23,9 C 30 % 1005,5 hPa 0,0 l/m 2,5 km/h N 5,2 C 23,9 C 15,7 km/h
05.10.2017 16:00 24,0 C 33 % 1004,5 hPa 0,0 l/m 4,8 km/h N 6,5 C 24,0 C 24,9 km/h
05.10.2017 17:00 23,1 C 32 % 1004,0 hPa 0,0 l/m 3,7 km/h N 5,6 C 23,0 C 29,0 km/h
05.10.2017 18:00 22,7 C 33 % 1003,5 hPa 0,0 l/m 4,8 km/h N 5,4 C 22,7 C 27,8 km/h
05.10.2017 19:00 22,6 C 36 % 1004,1 hPa 0,0 l/m 7,6 km/h N 6,9 C 22,2 C 30,6 km/h
05.10.2017 20:00 20,2 C 50 % 1005,8 hPa 0,3 l/m 5,7 km/h N 9,2 C 20,0 C 24,1 km/h
05.10.2017 21:00 16,2 C 71 % 1007,7 hPa 2,6 l/m 3,6 km/h N 10,9 C 16,2 C 16,9 km/h
05.10.2017 22:00 14,0 C 80 % 1008,7 hPa 2,9 l/m 5,0 km/h N 10,6 C 13,3 C 22,5 km/h
05.10.2017 23:00 12,5 C 81 % 1009,7 hPa 1,0 l/m 7,3 km/h N 9,3 C 11,6 C 21,3 km/h
06.10.2017 00:00 12,3 C 79 % 1010,6 hPa 0,0 l/m 5,7 km/h N 8,8 C 12,1 C 18,9 km/h
06.10.2017 01:00 12,0 C 75 % 1011,2 hPa 0,0 l/m 4,7 km/h N 7,6 C 12,0 C 15,3 km/h
06.10.2017 02:00 11,7 C 77 % 1011,2 hPa 0,0 l/m 4,1 km/h N 7,8 C 11,6 C 19,7 km/h
06.10.2017 03:00 11,4 C 74 % 1011,5 hPa 0,0 l/m 9,7 km/h N 7,0 C 9,4 C 23,3 km/h
06.10.2017 04:00 11,0 C 77 % 1011,4 hPa 0,0 l/m 9,3 km/h N 7,2 C 9,1 C 22,5 km/h
06.10.2017 05:00 10,9 C 76 % 1011,4 hPa 0,0 l/m 10,4 km/h N 6,8 C 8,4 C 26,1 km/h
06.10.2017 06:00 10,8 C 75 % 1011,4 hPa 0,0 l/m 12,4 km/h N 6,5 C 7,2 C 31,8 km/h
06.10.2017 07:00 10,4 C 74 % 1011,2 hPa 0,0 l/m 10,0 km/h N 5,9 C 8,0 C 29,3 km/h
06.10.2017 08:00 10,8 C 73 % 1011,4 hPa 0,0 l/m 10,3 km/h N 6,1 C 8,4 C 31,8 km/h
06.10.2017 09:00 11,4 C 72 % 1012,4 hPa 0,0 l/m 7,0 km/h N 6,5 C 10,8 C 21,7 km/h
06.10.2017 10:00 12,8 C 64 % 1012,8 hPa 0,0 l/m 8,9 km/h N 6,1 C 11,2 C 27,8 km/h
06.10.2017 11:00 13,0 C 62 % 1012,8 hPa 0,0 l/m 12,2 km/h N 5,8 C 9,9 C 35,0 km/h
06.10.2017 12:00 13,0 C 60 % 1013,2 hPa 0,0 l/m 9,3 km/h N 5,5 C 11,4 C 27,4 km/h
06.10.2017 13:00 12,9 C 59 % 1013,5 hPa 0,0 l/m 7,1 km/h N 5,0 C 12,5 C 26,5 km/h
06.10.2017 14:00 12,7 C 59 % 1013,5 hPa 0,0 l/m 6,5 km/h N 4,8 C 12,5 C 25,3 km/h
06.10.2017 15:00 12,9 C 57 % 1013,3 hPa 0,0 l/m 14,2 km/h N 4,6 C 9,0 C 32,6 km/h
06.10.2017 16:00 12,6 C 59 % 1012,6 hPa 0,0 l/m 14,8 km/h N 4,8 C 8,4 C 32,6 km/h
06.10.2017 17:00 12,3 C 61 % 1012,8 hPa 0,0 l/m 11,6 km/h N 4,9 C 9,4 C 32,2 km/h
06.10.2017 18:00 11,5 C 65 % 1012,9 hPa 0,0 l/m 15,2 km/h N 5,2 C 6,9 C 39,0 km/h
06.10.2017 19:00 10,9 C 68 % 1013,5 hPa 0,0 l/m 8,4 km/h N 5,2 C 9,6 C 25,8 km/h
06.10.2017 20:00 10,7 C 68 % 1014,2 hPa 0,0 l/m 9,2 km/h N 5,0 C 8,8 C 26,1 km/h
06.10.2017 21:00 10,8 C 67 % 1014,5 hPa 0,0 l/m 12,6 km/h N 4,9 C 7,2 C 29,4 km/h
06.10.2017 22:00 10,6 C 70 % 1015,0 hPa 0,0 l/m 13,0 km/h N 5,3 C 6,8 C 31,8 km/h
06.10.2017 23:00 10,4 C 72 % 1015,1 hPa 0,0 l/m 15,6 km/h N 5,5 C 5,4 C 36,2 km/h
07.10.2017 00:00 10,4 C 72 % 1015,8 hPa 0,0 l/m 14,3 km/h N 5,6 C 5,9 C 39,4 km/h
07.10.2017 01:00 10,4 C 73 % 1016,3 hPa 0,0 l/m 14,5 km/h N 5,7 C 5,9 C 33,0 km/h
07.10.2017 02:00 10,3 C 73 % 1016,2 hPa 0,0 l/m 16,3 km/h N 5,7 C 5,1 C 35,0 km/h
07.10.2017 03:00 10,2 C 75 % 1016,0 hPa 0,0 l/m 14,4 km/h N 5,9 C 5,7 C 32,6 km/h
07.10.2017 04:00 10,1 C 76 % 1016,7 hPa 0,0 l/m 13,3 km/h N 6,0 C 6,2 C 30,6 km/h
07.10.2017 05:00 10,1 C 77 % 1017,5 hPa 0,0 l/m 11,7 km/h N 6,2 C 6,9 C 27,0 km/h
07.10.2017 06:00 10,3 C 76 % 1018,3 hPa 0,0 l/m 11,2 km/h N 6,3 C 7,3 C 28,6 km/h
07.10.2017 07:00 10,2 C 77 % 1019,1 hPa 0,0 l/m 9,4 km/h N 6,3 C 8,2 C 24,9 km/h
07.10.2017 08:00 10,6 C 77 % 1019,6 hPa 0,0 l/m 8,7 km/h N 6,6 C 9,0 C 23,3 km/h
07.10.2017 09:00 11,5 C 73 % 1019,6 hPa 0,0 l/m 12,1 km/h N 6,8 C 8,2 C 29,8 km/h
07.10.2017 10:00 12,6 C 68 % 1019,9 hPa 0,0 l/m 13,4 km/h N 6,8 C 9,0 C 35,0 km/h
07.10.2017 11:00 13,0 C 67 % 1020,1 hPa 0,0 l/m 14,1 km/h N 7,0 C 9,2 C 34,6 km/h
07.10.2017 12:00 12,7 C 71 % 1020,1 hPa 0,0 l/m 12,4 km/h N 7,5 C 9,5 C 27,8 km/h
07.10.2017 13:00 12,8 C 72 % 1019,7 hPa 0,8 l/m 8,7 km/h N 7,8 C 11,3 C 22,1 km/h
07.10.2017 14:00 11,7 C 78 % 1019,5 hPa 0,0 l/m 7,7 km/h N 7,9 C 10,8 C 21,7 km/h
07.10.2017 15:00 11,7 C 77 % 1019,1 hPa 0,0 l/m 5,2 km/h N 7,9 C 11,7 C 24,9 km/h
07.10.2017 16:00 12,3 C 74 % 1018,8 hPa 0,0 l/m 6,0 km/h N 7,7 C 12,1 C 26,1 km/h
07.10.2017 17:00 12,0 C 68 % 1018,3 hPa 0,0 l/m 9,7 km/h N 6,3 C 10,0 C 24,5 km/h
07.10.2017 18:00 11,6 C 68 % 1017,9 hPa 0,0 l/m 6,9 km/h N 5,8 C 11,2 C 22,5 km/h
07.10.2017 19:00 11,1 C 69 % 1017,8 hPa 0,0 l/m 3,1 km/h N 5,7 C 11,1 C 12,9 km/h
07.10.2017 20:00 10,7 C 71 % 1017,5 hPa 0,0 l/m 0,4 km/h N 5,6 C 10,7 C 5,6 km/h
07.10.2017 21:00 9,6 C 74 % 1017,0 hPa 0,0 l/m 0,0 km/h N 5,1 C 9,6 C 0,8 km/h
07.10.2017 22:00 8,2 C 78 % 1016,3 hPa 0,0 l/m 0,0 km/h N 4,5 C 8,2 C 0,8 km/h
07.10.2017 23:00 8,0 C 80 % 1015,7 hPa 0,0 l/m 0,0 km/h N 4,8 C 8,0 C 1,2 km/h
08.10.2017 00:00 7,9 C 80 % 1014,9 hPa 0,0 l/m 0,0 km/h N 4,7 C 7,9 C 0,0 km/h
08.10.2017 01:00 7,8 C 82 % 1014,5 hPa 0,0 l/m 0,1 km/h N 4,9 C 7,8 C 1,6 km/h
08.10.2017 02:00 7,8 C 82 % 1014,0 hPa 0,0 l/m 0,0 km/h N 4,8 C 7,8 C 0,0 km/h
08.10.2017 03:00 7,2 C 82 % 1013,5 hPa 0,0 l/m 0,0 km/h N 4,2 C 7,2 C 0,4 km/h
08.10.2017 04:00 7,4 C 82 % 1013,2 hPa 0,0 l/m 0,0 km/h N 4,5 C 7,4 C 1,6 km/h
08.10.2017 05:00 10,5 C 73 % 1012,7 hPa 0,0 l/m 5,8 km/h N 5,8 C 9,6 C 22,6 km/h
08.10.2017 06:00 11,5 C 70 % 1012,4 hPa 0,0 l/m 6,7 km/h N 6,1 C 11,1 C 26,2 km/h
08.10.2017 07:00 11,2 C 71 % 1012,3 hPa 0,0 l/m 9,1 km/h N 6,1 C 9,6 C 31,4 km/h
08.10.2017 08:00 11,3 C 73 % 1012,6 hPa 0,3 l/m 13,7 km/h N 6,5 C 7,4 C 41,0 km/h
08.10.2017 09:00 11,4 C 74 % 1012,7 hPa 0,0 l/m 13,5 km/h N 6,9 C 7,5 C 36,6 km/h
08.10.2017 10:00 11,8 C 73 % 1013,1 hPa 0,0 l/m 8,7 km/h N 7,2 C 10,3 C 31,4 km/h
08.10.2017 11:00 12,0 C 73 % 1013,3 hPa 0,0 l/m 10,6 km/h N 7,3 C 9,5 C 36,6 km/h
08.10.2017 12:00 12,4 C 72 % 1013,6 hPa 0,0 l/m 9,9 km/h N 7,4 C 10,3 C 30,6 km/h
08.10.2017 13:00 13,1 C 69 % 1013,7 hPa 0,0 l/m 8,8 km/h N 7,5 C 11,6 C 32,6 km/h
08.10.2017 14:00 12,8 C 72 % 1013,7 hPa 0,0 l/m 6,6 km/h N 7,8 C 12,2 C 26,6 km/h
08.10.2017 15:00 13,0 C 72 % 1013,8 hPa 0,0 l/m 5,8 km/h N 8,1 C 12,9 C 25,4 km/h
08.10.2017 16:00 13,0 C 72 % 1013,5 hPa 0,0 l/m 11,3 km/h N 8,0 C 10,3 C 32,6 km/h
08.10.2017 17:00 12,8 C 72 % 1013,3 hPa 0,0 l/m 10,6 km/h N 8,0 C 10,5 C 27,8 km/h
08.10.2017 18:00 12,6 C 74 % 1013,8 hPa 0,0 l/m 12,0 km/h N 8,0 C 9,6 C 32,2 km/h
08.10.2017 19:00 12,4 C 74 % 1014,1 hPa 0,0 l/m 8,4 km/h N 7,9 C 11,2 C 28,2 km/h
08.10.2017 20:00 12,6 C 74 % 1014,4 hPa 0,0 l/m 8,8 km/h N 8,1 C 11,2 C 28,1 km/h
08.10.2017 21:00 12,8 C 74 % 1014,3 hPa 0,0 l/m 9,6 km/h N 8,3 C 11,0 C 29,8 km/h
08.10.2017 22:00 13,0 C 75 % 1014,8 hPa 0,0 l/m 10,1 km/h N 8,6 C 10,9 C 29,4 km/h
08.10.2017 23:00 12,2 C 79 % 1015,5 hPa 1,0 l/m 6,0 km/h N 8,7 C 11,6 C 18,1 km/h
Min-Datum _ 02.10.17 05.10.17 05.10.17 - 02.10.17 - 02.10.17 02.10.17 02.10.17
_ Min-Zeit 07:15 15:00 18:00 - 00:00 - 07:00 07:00 00:00
Minimum _ 2,1 C 28 % 1003,5 hPa - 0,0 km/h - -0,5 C 2,1 C 0,0 km/h
Max-Datum _ 05.10.17 02.10.17 04.10.17 03.10.17 06.10.17 - 03.10.17 05.10.17 05.10.17
_ Max-Zeit 16:15 08:30 08:45 06:00 23:15 - 15:15 16:15 17:00
Maximum _ 24,3 C 84 % 1025,4 hPa 3,9 l/m 18,3 km/h
N
- 11,4 C 24,3 C 49,9 km/h
N
Durchschnitt _ 12,5 C 70 % 1016,7 hPa #25,0 l/m 5,2 km/h N 7,0 C 11,6 C 16,6 km/h